sensor_id;sensor_type;location;lat;lon;timestamp;temperature;humidity
23544;DHT22;11950;51.230;4.012;2024-03-02T00:00:07;9.00;99.90
23544;DHT22;11950;51.230;4.012;2024-03-02T00:02:43;9.00;99.90
23544;DHT22;11950;51.230;4.012;2024-03-02T00:05:12;8.90;99.90
23544;DHT22;11950;51.230;4.012;2024-03-02T00:07:58;8.90;99.90
23544;DHT22;11950;51.230;4.012;2024-03-02T00:10:33;8.90;99.90
23544;DHT22;11950;51.230;4.012;2024-03-02T00:13:03;8.90;99.90
23544;DHT22;11950;51.230;4.012;2024-03-02T00:15:47;8.90;99.90
23544;DHT22;11950;51.230;4.012;2024-03-02T00:18:18;8.90;99.90
23544;DHT22;11950;51.230;4.012;2024-03-02T00:20:45;8.90;99.90
23544;DHT22;11950;51.230;4.012;2024-03-02T00:23:15;8.90;99.90
23544;DHT22;11950;51.230;4.012;2024-03-02T00:25:44;8.90;99.90
23544;DHT22;11950;51.230;4.012;2024-03-02T00:28:18;8.90;99.90
23544;DHT22;11950;51.230;4.012;2024-03-02T00:31:04;8.90;99.90
23544;DHT22;11950;51.230;4.012;2024-03-02T00:33:36;8.90;99.90
23544;DHT22;11950;51.230;4.012;2024-03-02T00:36:03;8.90;99.90
23544;DHT22;11950;51.230;4.012;2024-03-02T00:38:33;8.90;99.90
23544;DHT22;11950;51.230;4.012;2024-03-02T00:41:07;8.90;99.90
23544;DHT22;11950;51.230;4.012;2024-03-02T00:43:59;8.90;99.90
23544;DHT22;11950;51.230;4.012;2024-03-02T00:46:34;8.80;99.90
23544;DHT22;11950;51.230;4.012;2024-03-02T00:49:02;8.80;99.90
23544;DHT22;11950;51.230;4.012;2024-03-02T00:51:33;8.80;99.90
23544;DHT22;11950;51.230;4.012;2024-03-02T00:54:01;8.80;99.90
23544;DHT22;11950;51.230;4.012;2024-03-02T00:56:30;8.80;99.90
23544;DHT22;11950;51.230;4.012;2024-03-02T00:58:57;8.80;99.90
23544;DHT22;11950;51.230;4.012;2024-03-02T01:01:24;8.80;99.90
23544;DHT22;11950;51.230;4.012;2024-03-02T01:03:50;8.80;99.90
23544;DHT22;11950;51.230;4.012;2024-03-02T01:06:16;8.80;99.90
23544;DHT22;11950;51.230;4.012;2024-03-02T01:08:43;8.80;99.90
23544;DHT22;11950;51.230;4.012;2024-03-02T01:11:09;8.70;99.90
23544;DHT22;11950;51.230;4.012;2024-03-02T01:13:36;8.70;99.90
23544;DHT22;11950;51.230;4.012;2024-03-02T01:16:02;8.80;99.90
23544;DHT22;11950;51.230;4.012;2024-03-02T01:18:30;8.80;99.90
23544;DHT22;11950;51.230;4.012;2024-03-02T01:20:56;8.80;99.90
23544;DHT22;11950;51.230;4.012;2024-03-02T01:23:24;8.80;99.90
23544;DHT22;11950;51.230;4.012;2024-03-02T01:25:51;8.90;99.90
23544;DHT22;11950;51.230;4.012;2024-03-02T01:28:18;8.90;99.90
23544;DHT22;11950;51.230;4.012;2024-03-02T01:30:45;8.80;99.90
23544;DHT22;11950;51.230;4.012;2024-03-02T01:33:11;8.80;99.90
23544;DHT22;11950;51.230;4.012;2024-03-02T01:35:37;8.90;99.90
23544;DHT22;11950;51.230;4.012;2024-03-02T01:38:04;8.90;99.90
23544;DHT22;11950;51.230;4.012;2024-03-02T01:40:37;8.90;99.90
23544;DHT22;11950;51.230;4.012;2024-03-02T01:43:05;8.90;99.90
23544;DHT22;11950;51.230;4.012;2024-03-02T01:45:31;8.80;99.90
23544;DHT22;11950;51.230;4.012;2024-03-02T01:47:58;8.80;99.90
23544;DHT22;11950;51.230;4.012;2024-03-02T01:50:29;8.70;99.90
23544;DHT22;11950;51.230;4.012;2024-03-02T01:52:56;8.70;99.90
23544;DHT22;11950;51.230;4.012;2024-03-02T01:55:22;8.70;99.90
23544;DHT22;11950;51.230;4.012;2024-03-02T01:57:49;8.70;99.90
23544;DHT22;11950;51.230;4.012;2024-03-02T02:00:17;8.60;99.90
23544;DHT22;11950;51.230;4.012;2024-03-02T02:02:44;8.60;99.90
23544;DHT22;11950;51.230;4.012;2024-03-02T02:05:11;8.60;99.90
23544;DHT22;11950;51.230;4.012;2024-03-02T02:07:37;8.60;99.90
23544;DHT22;11950;51.230;4.012;2024-03-02T02:10:04;8.60;99.90
23544;DHT22;11950;51.230;4.012;2024-03-02T02:12:30;8.60;99.90
23544;DHT22;11950;51.230;4.012;2024-03-02T02:14:56;8.50;99.90
23544;DHT22;11950;51.230;4.012;2024-03-02T02:17:23;8.50;99.90
23544;DHT22;11950;51.230;4.012;2024-03-02T02:19:49;8.50;99.90
23544;DHT22;11950;51.230;4.012;2024-03-02T02:22:15;8.50;99.90
23544;DHT22;11950;51.230;4.012;2024-03-02T02:24:42;8.40;99.90
23544;DHT22;11950;51.230;4.012;2024-03-02T02:27:09;8.40;99.90
23544;DHT22;11950;51.230;4.012;2024-03-02T02:29:36;8.40;99.90
23544;DHT22;11950;51.230;4.012;2024-03-02T02:32:03;8.40;99.90
23544;DHT22;11950;51.230;4.012;2024-03-02T02:34:29;8.40;99.90
23544;DHT22;11950;51.230;4.012;2024-03-02T02:36:55;8.30;99.90
23544;DHT22;11950;51.230;4.012;2024-03-02T02:39:22;8.30;99.90
23544;DHT22;11950;51.230;4.012;2024-03-02T02:41:49;8.30;99.90
23544;DHT22;11950;51.230;4.012;2024-03-02T02:44:15;8.30;99.90
23544;DHT22;11950;51.230;4.012;2024-03-02T02:46:41;8.30;99.90
23544;DHT22;11950;51.230;4.012;2024-03-02T02:49:08;8.30;99.90
23544;DHT22;11950;51.230;4.012;2024-03-02T02:51:34;8.40;99.90
23544;DHT22;11950;51.230;4.012;2024-03-02T02:54:00;8.40;99.90
23544;DHT22;11950;51.230;4.012;2024-03-02T02:56:27;8.30;99.90
23544;DHT22;11950;51.230;4.012;2024-03-02T02:58:53;8.30;99.90
23544;DHT22;11950;51.230;4.012;2024-03-02T03:01:19;8.20;99.90
23544;DHT22;11950;51.230;4.012;2024-03-02T03:03:46;8.20;99.90
23544;DHT22;11950;51.230;4.012;2024-03-02T03:06:12;8.20;99.90
23544;DHT22;11950;51.230;4.012;2024-03-02T03:08:38;8.20;99.90
23544;DHT22;11950;51.230;4.012;2024-03-02T03:11:05;8.20;99.90
23544;DHT22;11950;51.230;4.012;2024-03-02T03:13:32;8.30;99.90
23544;DHT22;11950;51.230;4.012;2024-03-02T03:15:58;8.30;99.90
23544;DHT22;11950;51.230;4.012;2024-03-02T03:18:25;8.30;99.90
23544;DHT22;11950;51.230;4.012;2024-03-02T03:20:51;8.30;99.90
23544;DHT22;11950;51.230;4.012;2024-03-02T03:23:17;8.30;99.90
23544;DHT22;11950;51.230;4.012;2024-03-02T03:25:44;8.40;99.90
23544;DHT22;11950;51.230;4.012;2024-03-02T03:28:10;8.40;99.90
23544;DHT22;11950;51.230;4.012;2024-03-02T03:30:37;8.40;99.90
23544;DHT22;11950;51.230;4.012;2024-03-02T03:33:05;8.40;99.90
23544;DHT22;11950;51.230;4.012;2024-03-02T03:35:34;8.40;99.90
23544;DHT22;11950;51.230;4.012;2024-03-02T03:38:00;8.40;99.90
23544;DHT22;11950;51.230;4.012;2024-03-02T03:40:27;8.40;99.90
23544;DHT22;11950;51.230;4.012;2024-03-02T03:42:53;8.40;99.90
23544;DHT22;11950;51.230;4.012;2024-03-02T03:45:21;8.40;99.90
23544;DHT22;11950;51.230;4.012;2024-03-02T03:47:47;8.40;99.90
23544;DHT22;11950;51.230;4.012;2024-03-02T03:50:14;8.40;99.90
23544;DHT22;11950;51.230;4.012;2024-03-02T03:52:40;8.40;99.90
23544;DHT22;11950;51.230;4.012;2024-03-02T03:55:07;8.40;99.90
23544;DHT22;11950;51.230;4.012;2024-03-02T03:57:34;8.40;99.90
23544;DHT22;11950;51.230;4.012;2024-03-02T04:00:00;8.50;99.90
23544;DHT22;11950;51.230;4.012;2024-03-02T04:02:27;8.50;99.90
23544;DHT22;11950;51.230;4.012;2024-03-02T04:04:53;8.50;99.90
23544;DHT22;11950;51.230;4.012;2024-03-02T04:07:19;8.50;99.90
23544;DHT22;11950;51.230;4.012;2024-03-02T04:09:46;8.50;99.90
23544;DHT22;11950;51.230;4.012;2024-03-02T04:12:12;8.60;99.90
23544;DHT22;11950;51.230;4.012;2024-03-02T04:14:39;8.60;99.90
23544;DHT22;11950;51.230;4.012;2024-03-02T04:17:05;8.60;99.90
23544;DHT22;11950;51.230;4.012;2024-03-02T04:19:31;8.60;99.90
23544;DHT22;11950;51.230;4.012;2024-03-02T04:21:57;8.60;99.90
23544;DHT22;11950;51.230;4.012;2024-03-02T04:24:24;8.60;99.90
23544;DHT22;11950;51.230;4.012;2024-03-02T04:26:50;8.50;99.90
23544;DHT22;11950;51.230;4.012;2024-03-02T04:29:16;8.50;99.90
23544;DHT22;11950;51.230;4.012;2024-03-02T04:31:42;8.50;99.90
23544;DHT22;11950;51.230;4.012;2024-03-02T04:34:09;8.40;99.90
23544;DHT22;11950;51.230;4.012;2024-03-02T04:36:35;8.50;99.90
23544;DHT22;11950;51.230;4.012;2024-03-02T04:39:01;8.50;99.90
23544;DHT22;11950;51.230;4.012;2024-03-02T04:41:27;8.50;99.90
23544;DHT22;11950;51.230;4.012;2024-03-02T04:43:54;8.50;99.90
23544;DHT22;11950;51.230;4.012;2024-03-02T04:46:20;8.40;99.90
23544;DHT22;11950;51.230;4.012;2024-03-02T04:48:46;8.40;99.90
23544;DHT22;11950;51.230;4.012;2024-03-02T04:51:12;8.40;99.90
23544;DHT22;11950;51.230;4.012;2024-03-02T04:53:39;8.40;99.90
23544;DHT22;11950;51.230;4.012;2024-03-02T04:56:05;8.40;99.90
23544;DHT22;11950;51.230;4.012;2024-03-02T04:58:50;8.40;99.90
23544;DHT22;11950;51.230;4.012;2024-03-02T05:01:16;8.40;99.90
23544;DHT22;11950;51.230;4.012;2024-03-02T05:03:43;8.30;99.90
23544;DHT22;11950;51.230;4.012;2024-03-02T05:06:09;8.30;99.90
23544;DHT22;11950;51.230;4.012;2024-03-02T05:08:36;8.20;99.90
23544;DHT22;11950;51.230;4.012;2024-03-02T05:11:02;8.20;99.90
23544;DHT22;11950;51.230;4.012;2024-03-02T05:13:47;8.20;99.90
23544;DHT22;11950;51.230;4.012;2024-03-02T05:16:13;8.20;99.90
23544;DHT22;11950;51.230;4.012;2024-03-02T05:18:39;8.20;99.90
23544;DHT22;11950;51.230;4.012;2024-03-02T05:21:06;8.20;99.90
23544;DHT22;11950;51.230;4.012;2024-03-02T05:23:32;8.20;99.90
23544;DHT22;11950;51.230;4.012;2024-03-02T05:25:59;8.10;99.90
23544;DHT22;11950;51.230;4.012;2024-03-02T05:28:25;8.10;99.90
23544;DHT22;11950;51.230;4.012;2024-03-02T05:30:52;8.10;99.90
23544;DHT22;11950;51.230;4.012;2024-03-02T05:33:18;8.10;99.90
23544;DHT22;11950;51.230;4.012;2024-03-02T05:35:44;8.10;99.90
23544;DHT22;11950;51.230;4.012;2024-03-02T05:38:11;8.00;99.90
23544;DHT22;11950;51.230;4.012;2024-03-02T05:40:37;7.90;99.90
23544;DHT22;11950;51.230;4.012;2024-03-02T05:43:03;7.90;99.90
23544;DHT22;11950;51.230;4.012;2024-03-02T05:45:30;7.90;99.90
23544;DHT22;11950;51.230;4.012;2024-03-02T05:47:56;7.90;99.90
23544;DHT22;11950;51.230;4.012;2024-03-02T05:50:22;7.80;99.90
23544;DHT22;11950;51.230;4.012;2024-03-02T05:52:48;7.80;99.90
23544;DHT22;11950;51.230;4.012;2024-03-02T05:55:14;7.80;99.90
23544;DHT22;11950;51.230;4.012;2024-03-02T05:57:41;7.80;99.90
23544;DHT22;11950;51.230;4.012;2024-03-02T06:00:10;7.80;99.90
23544;DHT22;11950;51.230;4.012;2024-03-02T06:02:40;7.80;99.90
23544;DHT22;11950;51.230;4.012;2024-03-02T06:05:06;7.80;99.90
23544;DHT22;11950;51.230;4.012;2024-03-02T06:07:33;7.70;99.90
23544;DHT22;11950;51.230;4.012;2024-03-02T06:09:59;7.80;99.90
23544;DHT22;11950;51.230;4.012;2024-03-02T06:12:26;7.70;99.90
23544;DHT22;11950;51.230;4.012;2024-03-02T06:14:52;7.70;99.90
23544;DHT22;11950;51.230;4.012;2024-03-02T06:17:18;7.70;99.90
23544;DHT22;11950;51.230;4.012;2024-03-02T06:19:45;7.70;99.90
23544;DHT22;11950;51.230;4.012;2024-03-02T06:22:12;7.70;99.90
23544;DHT22;11950;51.230;4.012;2024-03-02T06:24:38;7.70;99.90
23544;DHT22;11950;51.230;4.012;2024-03-02T06:27:05;7.70;99.90
23544;DHT22;11950;51.230;4.012;2024-03-02T06:29:34;7.60;99.90
23544;DHT22;11950;51.230;4.012;2024-03-02T06:32:00;7.60;99.90
23544;DHT22;11950;51.230;4.012;2024-03-02T06:34:27;7.70;99.90
23544;DHT22;11950;51.230;4.012;2024-03-02T06:36:53;7.70;99.90
23544;DHT22;11950;51.230;4.012;2024-03-02T06:39:19;7.70;99.90
23544;DHT22;11950;51.230;4.012;2024-03-02T06:41:45;7.60;99.90
23544;DHT22;11950;51.230;4.012;2024-03-02T06:44:13;7.70;99.90
23544;DHT22;11950;51.230;4.012;2024-03-02T06:46:39;7.70;99.90
23544;DHT22;11950;51.230;4.012;2024-03-02T06:49:05;7.70;99.90
23544;DHT22;11950;51.230;4.012;2024-03-02T06:51:34;7.70;99.90
23544;DHT22;11950;51.230;4.012;2024-03-02T06:54:00;7.80;99.90
23544;DHT22;11950;51.230;4.012;2024-03-02T06:56:27;7.80;99.90
23544;DHT22;11950;51.230;4.012;2024-03-02T06:58:53;7.80;99.90
23544;DHT22;11950;51.230;4.012;2024-03-02T07:01:19;7.80;99.90
23544;DHT22;11950;51.230;4.012;2024-03-02T07:03:48;7.80;99.90
23544;DHT22;11950;51.230;4.012;2024-03-02T07:06:14;7.90;99.90
23544;DHT22;11950;51.230;4.012;2024-03-02T07:08:40;8.10;99.90
23544;DHT22;11950;51.230;4.012;2024-03-02T07:11:07;8.20;99.90
23544;DHT22;11950;51.230;4.012;2024-03-02T07:13:33;8.40;99.90
23544;DHT22;11950;51.230;4.012;2024-03-02T07:15:59;8.60;99.90
23544;DHT22;11950;51.230;4.012;2024-03-02T07:18:44;8.90;99.90
23544;DHT22;11950;51.230;4.012;2024-03-02T07:21:17;9.10;99.90
23544;DHT22;11950;51.230;4.012;2024-03-02T07:23:44;9.20;99.90
23544;DHT22;11950;51.230;4.012;2024-03-02T07:26:10;9.30;99.90
23544;DHT22;11950;51.230;4.012;2024-03-02T07:28:36;9.40;99.90
23544;DHT22;11950;51.230;4.012;2024-03-02T07:31:04;9.50;99.90
23544;DHT22;11950;51.230;4.012;2024-03-02T07:33:30;9.50;99.90
23544;DHT22;11950;51.230;4.012;2024-03-02T07:35:57;9.60;99.90
23544;DHT22;11950;51.230;4.012;2024-03-02T07:38:26;9.80;99.90
23544;DHT22;11950;51.230;4.012;2024-03-02T07:40:53;10.00;99.90
23544;DHT22;11950;51.230;4.012;2024-03-02T07:43:20;10.30;99.90
23544;DHT22;11950;51.230;4.012;2024-03-02T07:45:47;10.50;99.90
23544;DHT22;11950;51.230;4.012;2024-03-02T07:48:13;11.00;99.90
23544;DHT22;11950;51.230;4.012;2024-03-02T07:50:39;11.70;99.90
23544;DHT22;11950;51.230;4.012;2024-03-02T07:53:06;12.60;99.90
23544;DHT22;11950;51.230;4.012;2024-03-02T07:55:33;13.50;99.90
23544;DHT22;11950;51.230;4.012;2024-03-02T07:58:01;14.40;99.90
23544;DHT22;11950;51.230;4.012;2024-03-02T08:00:27;15.40;99.90
23544;DHT22;11950;51.230;4.012;2024-03-02T08:02:55;16.10;99.90
23544;DHT22;11950;51.230;4.012;2024-03-02T08:05:22;16.50;99.90
23544;DHT22;11950;51.230;4.012;2024-03-02T08:07:48;16.50;99.90
23544;DHT22;11950;51.230;4.012;2024-03-02T08:10:18;15.90;99.90
23544;DHT22;11950;51.230;4.012;2024-03-02T08:12:45;15.20;99.90
23544;DHT22;11950;51.230;4.012;2024-03-02T08:15:11;14.50;99.90
23544;DHT22;11950;51.230;4.012;2024-03-02T08:17:40;13.90;99.90
23544;DHT22;11950;51.230;4.012;2024-03-02T08:20:14;13.50;99.90
23544;DHT22;11950;51.230;4.012;2024-03-02T08:22:40;13.10;99.90
23544;DHT22;11950;51.230;4.012;2024-03-02T08:25:07;12.90;99.90
23544;DHT22;11950;51.230;4.012;2024-03-02T08:27:34;12.60;99.90
23544;DHT22;11950;51.230;4.012;2024-03-02T08:30:01;12.40;99.90
23544;DHT22;11950;51.230;4.012;2024-03-02T08:32:29;12.30;99.90
23544;DHT22;11950;51.230;4.012;2024-03-02T08:34:55;12.10;99.90
23544;DHT22;11950;51.230;4.012;2024-03-02T08:37:22;12.00;99.90
23544;DHT22;11950;51.230;4.012;2024-03-02T08:39:48;12.10;99.90
23544;DHT22;11950;51.230;4.012;2024-03-02T08:42:14;12.00;99.90
23544;DHT22;11950;51.230;4.012;2024-03-02T08:44:40;11.90;99.90
23544;DHT22;11950;51.230;4.012;2024-03-02T08:47:07;11.90;99.90
23544;DHT22;11950;51.230;4.012;2024-03-02T08:49:33;11.80;99.90
23544;DHT22;11950;51.230;4.012;2024-03-02T08:51:59;11.70;99.90
23544;DHT22;11950;51.230;4.012;2024-03-02T08:54:25;11.70;99.90
23544;DHT22;11950;51.230;4.012;2024-03-02T08:56:52;11.70;99.90
23544;DHT22;11950;51.230;4.012;2024-03-02T08:59:18;11.60;99.90
23544;DHT22;11950;51.230;4.012;2024-03-02T09:01:45;11.60;99.90
23544;DHT22;11950;51.230;4.012;2024-03-02T09:04:11;11.50;99.90
23544;DHT22;11950;51.230;4.012;2024-03-02T09:06:38;11.50;99.90
23544;DHT22;11950;51.230;4.012;2024-03-02T09:09:04;11.50;99.90
23544;DHT22;11950;51.230;4.012;2024-03-02T09:11:31;11.60;99.90
23544;DHT22;11950;51.230;4.012;2024-03-02T09:13:58;11.60;99.90
23544;DHT22;11950;51.230;4.012;2024-03-02T09:16:25;11.60;99.90
23544;DHT22;11950;51.230;4.012;2024-03-02T09:18:57;11.70;99.90
23544;DHT22;11950;51.230;4.012;2024-03-02T09:21:23;11.70;99.90
23544;DHT22;11950;51.230;4.012;2024-03-02T09:23:49;11.70;99.90
23544;DHT22;11950;51.230;4.012;2024-03-02T09:26:15;11.70;99.90
23544;DHT22;11950;51.230;4.012;2024-03-02T09:28:43;11.70;99.90
23544;DHT22;11950;51.230;4.012;2024-03-02T09:31:10;11.80;99.90
23544;DHT22;11950;51.230;4.012;2024-03-02T09:33:36;11.80;99.90
23544;DHT22;11950;51.230;4.012;2024-03-02T09:36:02;11.80;99.90
23544;DHT22;11950;51.230;4.012;2024-03-02T09:38:28;11.80;99.90
23544;DHT22;11950;51.230;4.012;2024-03-02T09:40:54;11.80;99.90
23544;DHT22;11950;51.230;4.012;2024-03-02T09:43:21;11.90;99.90
23544;DHT22;11950;51.230;4.012;2024-03-02T09:45:48;12.00;99.90
23544;DHT22;11950;51.230;4.012;2024-03-02T09:48:14;12.00;99.90
23544;DHT22;11950;51.230;4.012;2024-03-02T09:50:44;12.00;99.90
23544;DHT22;11950;51.230;4.012;2024-03-02T09:53:12;12.00;99.90
23544;DHT22;11950;51.230;4.012;2024-03-02T09:55:38;12.10;99.90
23544;DHT22;11950;51.230;4.012;2024-03-02T09:58:09;12.10;99.90
23544;DHT22;11950;51.230;4.012;2024-03-02T10:00:35;12.10;99.90
23544;DHT22;11950;51.230;4.012;2024-03-02T10:03:01;12.10;99.90
23544;DHT22;11950;51.230;4.012;2024-03-02T10:05:28;12.10;99.90
23544;DHT22;11950;51.230;4.012;2024-03-02T10:08:01;12.00;99.90
23544;DHT22;11950;51.230;4.012;2024-03-02T10:10:38;12.00;99.90
23544;DHT22;11950;51.230;4.012;2024-03-02T10:13:12;12.00;99.90
23544;DHT22;11950;51.230;4.012;2024-03-02T10:15:40;12.00;99.90
23544;DHT22;11950;51.230;4.012;2024-03-02T10:18:10;12.00;99.90
23544;DHT22;11950;51.230;4.012;2024-03-02T10:20:42;12.10;99.90
23544;DHT22;11950;51.230;4.012;2024-03-02T10:23:13;12.20;99.90
23544;DHT22;11950;51.230;4.012;2024-03-02T10:25:40;12.20;99.90
23544;DHT22;11950;51.230;4.012;2024-03-02T10:28:06;12.30;99.90
23544;DHT22;11950;51.230;4.012;2024-03-02T10:30:36;12.40;99.90
23544;DHT22;11950;51.230;4.012;2024-03-02T10:33:03;12.30;99.90
23544;DHT22;11950;51.230;4.012;2024-03-02T10:35:29;12.40;99.90
23544;DHT22;11950;51.230;4.012;2024-03-02T10:38:01;12.40;99.90
23544;DHT22;11950;51.230;4.012;2024-03-02T10:40:29;12.40;99.90
23544;DHT22;11950;51.230;4.012;2024-03-02T10:42:56;12.50;99.90
23544;DHT22;11950;51.230;4.012;2024-03-02T10:45:23;12.60;99.90
23544;DHT22;11950;51.230;4.012;2024-03-02T10:47:50;12.60;99.90
23544;DHT22;11950;51.230;4.012;2024-03-02T10:50:17;12.70;99.90
23544;DHT22;11950;51.230;4.012;2024-03-02T10:52:43;12.70;99.90
23544;DHT22;11950;51.230;4.012;2024-03-02T10:55:10;12.80;99.90
23544;DHT22;11950;51.230;4.012;2024-03-02T10:57:54;12.80;99.90
23544;DHT22;11950;51.230;4.012;2024-03-02T11:00:24;12.70;99.90
23544;DHT22;11950;51.230;4.012;2024-03-02T11:03:05;12.70;99.90
23544;DHT22;11950;51.230;4.012;2024-03-02T11:05:34;12.70;99.90
23544;DHT22;11950;51.230;4.012;2024-03-02T11:08:07;12.60;99.90
23544;DHT22;11950;51.230;4.012;2024-03-02T11:10:41;12.70;99.90
23544;DHT22;11950;51.230;4.012;2024-03-02T11:13:14;12.80;99.90
23544;DHT22;11950;51.230;4.012;2024-03-02T11:15:43;12.80;99.90
23544;DHT22;11950;51.230;4.012;2024-03-02T11:18:10;12.90;99.90
23544;DHT22;11950;51.230;4.012;2024-03-02T11:20:38;12.90;99.90
23544;DHT22;11950;51.230;4.012;2024-03-02T11:23:09;13.00;99.90
23544;DHT22;11950;51.230;4.012;2024-03-02T11:25:36;13.00;99.90
23544;DHT22;11950;51.230;4.012;2024-03-02T11:28:06;13.10;99.90
23544;DHT22;11950;51.230;4.012;2024-03-02T11:33:07;13.10;99.90
23544;DHT22;11950;51.230;4.012;2024-03-02T11:35:35;13.20;99.90
23544;DHT22;11950;51.230;4.012;2024-03-02T11:38:01;13.20;99.90
23544;DHT22;11950;51.230;4.012;2024-03-02T11:40:29;13.30;99.90
23544;DHT22;11950;51.230;4.012;2024-03-02T11:42:59;13.30;99.90
23544;DHT22;11950;51.230;4.012;2024-03-02T11:45:26;13.30;99.90
23544;DHT22;11950;51.230;4.012;2024-03-02T11:47:59;13.30;99.90
23544;DHT22;11950;51.230;4.012;2024-03-02T11:50:30;13.40;99.90
23544;DHT22;11950;51.230;4.012;2024-03-02T11:52:58;13.40;99.90
23544;DHT22;11950;51.230;4.012;2024-03-02T11:55:26;13.40;99.90
23544;DHT22;11950;51.230;4.012;2024-03-02T11:57:53;13.30;99.90
23544;DHT22;11950;51.230;4.012;2024-03-02T12:00:19;13.30;99.90
23544;DHT22;11950;51.230;4.012;2024-03-02T12:05:32;13.40;99.90
23544;DHT22;11950;51.230;4.012;2024-03-02T12:08:00;13.20;99.90
23544;DHT22;11950;51.230;4.012;2024-03-02T12:10:27;13.20;99.90
23544;DHT22;11950;51.230;4.012;2024-03-02T12:13:00;13.10;99.90
23544;DHT22;11950;51.230;4.012;2024-03-02T12:15:31;13.10;99.90
23544;DHT22;11950;51.230;4.012;2024-03-02T12:17:58;13.10;99.90
23544;DHT22;11950;51.230;4.012;2024-03-02T12:20:26;13.20;99.90
23544;DHT22;11950;51.230;4.012;2024-03-02T12:22:55;13.40;99.90
23544;DHT22;11950;51.230;4.012;2024-03-02T12:25:23;13.40;99.90
23544;DHT22;11950;51.230;4.012;2024-03-02T12:27:53;13.50;99.90
23544;DHT22;11950;51.230;4.012;2024-03-02T12:30:21;13.60;99.90
23544;DHT22;11950;51.230;4.012;2024-03-02T12:32:48;13.60;99.90
23544;DHT22;11950;51.230;4.012;2024-03-02T12:35:14;13.60;99.90
23544;DHT22;11950;51.230;4.012;2024-03-02T12:37:49;13.60;99.90
23544;DHT22;11950;51.230;4.012;2024-03-02T12:40:18;13.60;99.90
23544;DHT22;11950;51.230;4.012;2024-03-02T12:42:45;13.70;99.90
23544;DHT22;11950;51.230;4.012;2024-03-02T12:45:13;13.70;99.90
23544;DHT22;11950;51.230;4.012;2024-03-02T12:47:40;13.70;99.90
23544;DHT22;11950;51.230;4.012;2024-03-02T12:50:07;13.70;99.90
23544;DHT22;11950;51.230;4.012;2024-03-02T12:52:34;13.70;99.90
23544;DHT22;11950;51.230;4.012;2024-03-02T12:55:01;13.80;99.90
23544;DHT22;11950;51.230;4.012;2024-03-02T12:57:30;13.80;99.90
23544;DHT22;11950;51.230;4.012;2024-03-02T13:00:02;13.80;99.90
23544;DHT22;11950;51.230;4.012;2024-03-02T13:02:36;13.80;99.90
23544;DHT22;11950;51.230;4.012;2024-03-02T13:05:02;13.80;99.90
23544;DHT22;11950;51.230;4.012;2024-03-02T13:07:29;13.80;99.90
23544;DHT22;11950;51.230;4.012;2024-03-02T13:09:55;13.90;99.90
23544;DHT22;11950;51.230;4.012;2024-03-02T13:12:24;14.00;99.90
23544;DHT22;11950;51.230;4.012;2024-03-02T13:14:53;14.00;99.90
23544;DHT22;11950;51.230;4.012;2024-03-02T13:17:20;14.00;99.90
23544;DHT22;11950;51.230;4.012;2024-03-02T13:19:58;14.00;99.90
23544;DHT22;11950;51.230;4.012;2024-03-02T13:22:25;14.00;99.90
23544;DHT22;11950;51.230;4.012;2024-03-02T13:24:52;14.00;99.90
23544;DHT22;11950;51.230;4.012;2024-03-02T13:27:20;14.00;99.90
23544;DHT22;11950;51.230;4.012;2024-03-02T13:29:47;14.00;99.90
23544;DHT22;11950;51.230;4.012;2024-03-02T13:32:16;14.00;99.90
23544;DHT22;11950;51.230;4.012;2024-03-02T13:34:43;14.00;99.90
23544;DHT22;11950;51.230;4.012;2024-03-02T13:37:09;13.90;99.90
23544;DHT22;11950;51.230;4.012;2024-03-02T13:39:36;13.90;99.90
23544;DHT22;11950;51.230;4.012;2024-03-02T13:42:09;13.90;99.90
23544;DHT22;11950;51.230;4.012;2024-03-02T13:44:36;13.80;99.90
23544;DHT22;11950;51.230;4.012;2024-03-02T13:47:04;13.80;99.90
23544;DHT22;11950;51.230;4.012;2024-03-02T13:49:31;13.80;99.90
23544;DHT22;11950;51.230;4.012;2024-03-02T13:52:07;13.80;99.90
23544;DHT22;11950;51.230;4.012;2024-03-02T13:54:43;13.80;99.90
23544;DHT22;11950;51.230;4.012;2024-03-02T13:57:10;13.80;99.90
23544;DHT22;11950;51.230;4.012;2024-03-02T13:59:37;13.80;99.90
23544;DHT22;11950;51.230;4.012;2024-03-02T14:02:04;13.70;99.90
23544;DHT22;11950;51.230;4.012;2024-03-02T14:04:32;13.70;99.90
23544;DHT22;11950;51.230;4.012;2024-03-02T14:06:59;13.70;99.90
23544;DHT22;11950;51.230;4.012;2024-03-02T14:09:25;13.60;99.90
23544;DHT22;11950;51.230;4.012;2024-03-02T14:11:53;13.70;99.90
23544;DHT22;11950;51.230;4.012;2024-03-02T14:14:20;13.70;99.90
23544;DHT22;11950;51.230;4.012;2024-03-02T14:16:46;13.70;99.90
23544;DHT22;11950;51.230;4.012;2024-03-02T14:19:13;13.60;99.90
23544;DHT22;11950;51.230;4.012;2024-03-02T14:21:39;13.60;99.90
23544;DHT22;11950;51.230;4.012;2024-03-02T14:24:05;13.60;99.90
23544;DHT22;11950;51.230;4.012;2024-03-02T14:26:38;13.70;99.90
23544;DHT22;11950;51.230;4.012;2024-03-02T14:29:05;13.60;99.90
23544;DHT22;11950;51.230;4.012;2024-03-02T14:31:32;13.60;99.90
23544;DHT22;11950;51.230;4.012;2024-03-02T14:33:58;13.60;99.90
23544;DHT22;11950;51.230;4.012;2024-03-02T14:36:26;13.60;99.90
23544;DHT22;11950;51.230;4.012;2024-03-02T14:38:53;13.60;99.90
23544;DHT22;11950;51.230;4.012;2024-03-02T14:41:20;13.60;99.90
23544;DHT22;11950;51.230;4.012;2024-03-02T14:43:46;13.60;99.90
23544;DHT22;11950;51.230;4.012;2024-03-02T14:46:12;13.70;99.90
23544;DHT22;11950;51.230;4.012;2024-03-02T14:48:39;13.70;99.90
23544;DHT22;11950;51.230;4.012;2024-03-02T14:51:05;13.60;99.90
23544;DHT22;11950;51.230;4.012;2024-03-02T14:53:31;13.60;99.90
23544;DHT22;11950;51.230;4.012;2024-03-02T14:55:58;13.60;99.90
23544;DHT22;11950;51.230;4.012;2024-03-02T14:58:24;13.70;99.90
23544;DHT22;11950;51.230;4.012;2024-03-02T15:00:51;13.70;99.90
23544;DHT22;11950;51.230;4.012;2024-03-02T15:03:18;13.70;99.90
23544;DHT22;11950;51.230;4.012;2024-03-02T15:05:45;13.70;99.90
23544;DHT22;11950;51.230;4.012;2024-03-02T15:08:11;13.70;99.90
23544;DHT22;11950;51.230;4.012;2024-03-02T15:10:37;13.70;99.90
23544;DHT22;11950;51.230;4.012;2024-03-02T15:13:04;13.80;99.90
23544;DHT22;11950;51.230;4.012;2024-03-02T15:15:30;13.80;99.90
23544;DHT22;11950;51.230;4.012;2024-03-02T15:17:56;13.80;99.90
23544;DHT22;11950;51.230;4.012;2024-03-02T15:20:22;13.80;99.90
23544;DHT22;11950;51.230;4.012;2024-03-02T15:22:49;13.80;99.90
23544;DHT22;11950;51.230;4.012;2024-03-02T15:25:15;13.80;99.90
23544;DHT22;11950;51.230;4.012;2024-03-02T15:27:42;13.80;99.90
23544;DHT22;11950;51.230;4.012;2024-03-02T15:30:09;13.80;99.90
23544;DHT22;11950;51.230;4.012;2024-03-02T15:32:36;13.80;99.90
23544;DHT22;11950;51.230;4.012;2024-03-02T15:35:05;13.80;99.90
23544;DHT22;11950;51.230;4.012;2024-03-02T15:37:32;13.80;99.90
23544;DHT22;11950;51.230;4.012;2024-03-02T15:39:58;13.80;99.90
23544;DHT22;11950;51.230;4.012;2024-03-02T15:42:32;13.80;99.90
23544;DHT22;11950;51.230;4.012;2024-03-02T15:44:59;13.70;99.90